createdAt,value
2018-12-07T00:00:43.212Z,24.00
2018-12-07T00:03:12.676Z,28.02
2018-12-07T00:05:42.171Z,27.85
2018-12-07T00:08:11.992Z,23.30
2018-12-07T00:10:41.029Z,20.07
2018-12-07T00:13:10.508Z,26.13
2018-12-07T00:15:40.392Z,25.25
2018-12-07T00:18:10.128Z,24.30
2018-12-07T00:20:39.184Z,23.60
2018-12-07T00:23:08.327Z,22.47
2018-12-07T00:25:37.914Z,20.10
2018-12-07T00:28:07.298Z,21.93
2018-12-07T00:30:36.968Z,19.23
2018-12-07T00:33:06.454Z,20.77
2018-12-07T00:35:35.542Z,23.83
2018-12-07T00:38:04.635Z,21.00
2018-12-07T00:40:34.035Z,25.87
2018-12-07T00:43:03.071Z,19.23
2018-12-07T00:45:32.121Z,20.00
2018-12-07T00:48:02.438Z,28.20
2018-12-07T00:50:31.481Z,21.10
2018-12-07T00:53:00.992Z,30.20
2018-12-07T00:55:38.222Z,23.33
2018-12-07T00:58:07.582Z,21.40
2018-12-07T01:00:37.594Z,21.13
2018-12-07T01:03:07.103Z,22.03
2018-12-07T01:05:36.720Z,16.03
2018-12-07T01:08:05.772Z,19.23
2018-12-07T01:10:34.850Z,21.90
2018-12-07T01:13:05.481Z,19.73
2018-12-07T01:15:34.547Z,18.70
2018-12-07T01:18:03.755Z,17.00
2018-12-07T01:20:33.655Z,21.30
2018-12-07T01:23:03.780Z,19.90
2018-12-07T01:25:33.219Z,20.30
2018-12-07T01:28:02.302Z,15.23
2018-12-07T01:30:33.481Z,18.80
2018-12-07T01:33:02.861Z,20.27
2018-12-07T01:35:32.899Z,21.53
2018-12-07T01:38:02.632Z,17.77
2018-12-07T01:40:32.588Z,22.50
2018-12-07T01:43:02.728Z,21.63
2018-12-07T01:45:31.764Z,18.60
2018-12-07T01:48:01.191Z,18.97
2018-12-07T01:50:30.320Z,20.83
2018-12-07T01:53:00.225Z,19.47
2018-12-07T01:55:29.919Z,19.70
2018-12-07T01:57:59.448Z,22.60
2018-12-07T02:00:28.523Z,18.37
2018-12-07T02:02:58.390Z,20.23
2018-12-07T02:05:28.072Z,19.90
2018-12-07T02:07:57.139Z,22.50
2018-12-07T02:10:27.576Z,18.50
2018-12-07T02:12:57.483Z,21.37
2018-12-07T02:15:26.582Z,22.87
2018-12-07T02:17:55.731Z,25.90
2018-12-07T02:20:25.166Z,16.83
2018-12-07T02:22:55.118Z,17.87
2018-12-07T02:25:24.163Z,18.97
2018-12-07T02:27:59.209Z,17.97
2018-12-07T02:30:29.277Z,17.77
2018-12-07T02:32:58.752Z,16.53
2018-12-07T02:35:27.940Z,15.63
2018-12-07T02:37:57.933Z,19.53
2018-12-07T02:40:27.088Z,17.53
2018-12-07T02:42:56.368Z,18.17
2018-12-07T02:45:25.397Z,16.90
2018-12-07T02:47:54.455Z,15.70
2018-12-07T02:50:24.077Z,15.90
2018-12-07T02:52:53.825Z,19.20
2018-12-07T02:55:22.965Z,18.13
2018-12-07T02:57:51.995Z,18.27
2018-12-07T03:00:21.699Z,19.70
2018-12-07T03:02:50.733Z,14.97
2018-12-07T03:05:20.240Z,20.87
2018-12-07T03:07:50.117Z,17.70
2018-12-07T03:10:19.248Z,17.63
2018-12-07T03:12:48.287Z,19.23
2018-12-07T03:15:17.319Z,20.70
2018-12-07T03:17:46.567Z,24.37
2018-12-07T03:20:15.644Z,29.57
2018-12-07T03:22:44.679Z,22.73
2018-12-07T03:25:14.553Z,21.83
2018-12-07T03:27:44.739Z,24.63
2018-12-07T03:30:13.765Z,24.60
2018-12-07T03:32:42.877Z,26.97
2018-12-07T03:35:11.947Z,24.73
2018-12-07T03:37:41.014Z,26.73
2018-12-07T03:40:10.787Z,24.03
2018-12-07T03:42:40.721Z,25.33
2018-12-07T03:45:10.404Z,21.70
2018-12-07T03:47:40.148Z,25.90
2018-12-07T03:50:09.186Z,23.87
2018-12-07T03:52:38.424Z,22.13
2018-12-07T03:55:07.874Z,22.03
2018-12-07T03:57:37.362Z,23.47
2018-12-07T04:00:07.149Z,25.53
2018-12-07T04:02:36.241Z,24.60
2018-12-07T04:05:05.282Z,20.07
2018-12-07T04:07:35.411Z,20.40
2018-12-07T04:10:05.193Z,20.40
2018-12-07T04:12:35.260Z,24.87
2018-12-07T04:15:05.538Z,24.03
2018-12-07T04:17:35.678Z,23.80
2018-12-07T04:20:05.415Z,21.03
2018-12-07T04:22:34.484Z,28.93
2018-12-07T04:25:03.564Z,19.03
2018-12-07T04:27:32.643Z,19.67
2018-12-07T04:30:23.541Z,22.73
2018-12-07T04:32:53.524Z,18.90
2018-12-07T04:35:22.814Z,23.03
2018-12-07T04:37:51.969Z,23.97
2018-12-07T04:40:21.569Z,20.00
2018-12-07T04:42:51.488Z,27.20
2018-12-07T04:45:20.522Z,20.60
2018-12-07T04:47:49.960Z,21.77
2018-12-07T04:50:19.112Z,20.93
2018-12-07T04:52:48.172Z,28.13
2018-12-07T04:55:17.613Z,20.97
2018-12-07T04:57:47.735Z,25.00
2018-12-07T05:00:18.210Z,22.37
2018-12-07T05:02:48.026Z,23.90
2018-12-07T05:05:17.499Z,23.00
2018-12-07T05:07:47.407Z,22.23
2018-12-07T05:10:16.477Z,23.43
2018-12-07T05:12:46.057Z,24.40
2018-12-07T05:15:15.083Z,25.63
2018-12-07T05:17:44.139Z,28.20
2018-12-07T05:20:13.403Z,29.20
2018-12-07T05:22:43.209Z,25.70
2018-12-07T05:25:13.037Z,27.10
2018-12-07T05:27:42.469Z,29.33
2018-12-07T05:30:11.528Z,23.93
2018-12-07T05:32:41.281Z,30.10
2018-12-07T05:35:10.832Z,28.70
2018-12-07T05:37:40.819Z,28.10
2018-12-07T05:40:10.697Z,24.20
2018-12-07T05:42:40.001Z,23.93
2018-12-07T05:45:10.051Z,33.23
2018-12-07T05:47:40.559Z,27.53
2018-12-07T05:50:10.161Z,38.07
2018-12-07T05:52:40.277Z,38.40
2018-12-07T05:55:10.708Z,26.97
2018-12-07T05:57:40.099Z,32.43
2018-12-07T06:00:09.992Z,29.42
2018-12-07T06:02:39.852Z,32.70
2018-12-07T06:05:09.283Z,27.52
2018-12-07T06:07:38.800Z,29.13
2018-12-07T06:10:08.291Z,29.40
2018-12-07T06:12:37.364Z,28.80
2018-12-07T06:15:06.636Z,27.70
2018-12-07T06:17:37.198Z,32.87
2018-12-07T06:20:06.359Z,29.03
2018-12-07T06:22:36.112Z,24.67
2018-12-07T06:25:05.623Z,29.83
2018-12-07T06:27:34.767Z,24.00
2018-12-07T06:30:05.283Z,27.10
2018-12-07T06:32:36.225Z,26.60
2018-12-07T06:35:05.775Z,21.67
2018-12-07T06:37:34.927Z,20.03
2018-12-07T06:40:05.237Z,21.20
2018-12-07T06:42:34.939Z,24.03
2018-12-07T06:45:05.367Z,23.70
2018-12-07T06:47:34.468Z,22.17
2018-12-07T06:50:06.687Z,21.30
2018-12-07T06:52:36.368Z,25.13
2018-12-07T06:55:06.524Z,23.77
2018-12-07T06:57:36.374Z,22.20
2018-12-07T07:00:07.553Z,21.60
2018-12-07T07:02:38.393Z,23.63
2018-12-07T07:05:08.207Z,21.40
2018-12-07T07:07:37.927Z,22.60
2018-12-07T07:10:07.361Z,29.00
2018-12-07T07:12:37.136Z,24.27
2018-12-07T07:15:06.852Z,23.20
2018-12-07T07:17:35.959Z,21.63
2018-12-07T07:20:06.204Z,19.67
2018-12-07T07:22:37.178Z,23.17
2018-12-07T07:25:06.207Z,23.53
2018-12-07T07:27:35.614Z,22.07
2018-12-07T07:30:06.303Z,21.93
2018-12-07T07:32:35.859Z,24.60
2018-12-07T07:35:05.916Z,17.20
2018-12-07T07:37:34.985Z,19.53
2018-12-07T07:40:04.415Z,16.43
2018-12-07T07:42:33.609Z,18.93
2018-12-07T07:45:02.684Z,20.20
2018-12-07T07:47:32.111Z,19.10
2018-12-07T07:50:01.174Z,20.40
2018-12-07T07:52:30.552Z,21.63
2018-12-07T07:54:59.614Z,17.50
2018-12-07T07:57:29.156Z,40.87
2018-12-07T07:59:59.019Z,21.67
2018-12-07T08:02:29.204Z,15.60
2018-12-07T08:04:59.385Z,19.13
2018-12-07T08:07:28.551Z,16.93
2018-12-07T08:09:58.725Z,16.57
2018-12-07T08:12:28.169Z,14.80
2018-12-07T08:14:57.279Z,14.20
2018-12-07T08:17:27.034Z,15.67
2018-12-07T08:19:56.531Z,10.97
2018-12-07T08:22:25.698Z,14.75
2018-12-07T08:24:55.547Z,9.90
2018-12-07T08:27:24.644Z,13.40
2018-12-07T08:29:54.147Z,11.77
2018-12-07T08:32:23.227Z,15.10
2018-12-07T08:34:52.731Z,11.93
2018-12-07T08:37:22.720Z,13.87
2018-12-07T08:39:52.472Z,9.60
2018-12-07T08:42:21.523Z,11.87
2018-12-07T08:44:50.943Z,10.37
2018-12-07T08:47:21.944Z,16.03
2018-12-07T08:49:55.885Z,11.97
2018-12-07T08:52:25.124Z,8.07
2018-12-07T08:54:55.001Z,12.23
2018-12-07T08:57:24.956Z,7.83
2018-12-07T08:59:54.488Z,8.67
2018-12-07T09:02:24.448Z,6.77
2018-12-07T09:04:53.604Z,5.03
2018-12-07T09:07:22.715Z,5.90
2018-12-07T09:09:52.193Z,8.57
2018-12-07T09:12:22.591Z,7.17
2018-12-07T09:14:51.840Z,5.50
2018-12-07T09:17:21.122Z,9.63
2018-12-07T09:19:50.187Z,6.30
2018-12-07T09:22:19.694Z,5.20
2018-12-07T09:24:50.424Z,6.60
2018-12-07T09:27:20.118Z,8.70
2018-12-07T09:29:49.188Z,6.20
2018-12-07T09:32:19.272Z,6.23
2018-12-07T09:34:49.520Z,5.33
2018-12-07T09:37:19.159Z,6.77
2018-12-07T09:39:48.648Z,8.80
2018-12-07T09:42:18.667Z,6.30
2018-12-07T09:44:48.312Z,6.50
2018-12-07T09:47:17.380Z,5.50
2018-12-07T09:49:46.444Z,4.57
2018-12-07T09:52:16.264Z,5.80
2018-12-07T09:54:45.595Z,4.47
2018-12-07T09:57:14.626Z,4.37
2018-12-07T09:59:44.835Z,7.53
2018-12-07T10:02:15.103Z,3.63
2018-12-07T10:04:44.202Z,4.23
2018-12-07T10:07:13.760Z,3.73
2018-12-07T10:09:43.233Z,5.60
2018-12-07T10:12:12.775Z,3.40
2018-12-07T10:14:41.806Z,2.33
2018-12-07T10:17:11.365Z,2.47
2018-12-07T10:19:40.416Z,3.80
2018-12-07T10:22:09.447Z,3.60
2018-12-07T10:24:38.526Z,3.20
2018-12-07T10:27:08.067Z,4.23
2018-12-07T10:29:38.020Z,5.47
2018-12-07T10:32:07.159Z,2.47
2018-12-07T10:34:36.420Z,4.83
2018-12-07T10:37:05.679Z,3.73
2018-12-07T10:39:35.115Z,3.60
2018-12-07T10:42:04.555Z,3.27
2018-12-07T10:44:34.247Z,3.17
2018-12-07T10:47:04.244Z,5.37
2018-12-07T10:49:33.737Z,3.47
2018-12-07T10:52:02.804Z,3.90
2018-12-07T10:54:32.436Z,3.77
2018-12-07T10:57:02.400Z,3.92
2018-12-07T10:59:31.794Z,4.20
2018-12-07T11:02:06.572Z,4.07
2018-12-07T11:04:41.204Z,3.73
2018-12-07T11:07:16.219Z,4.17
2018-12-07T11:09:50.968Z,3.37
2018-12-07T11:12:26.455Z,2.83
2018-12-07T11:15:01.132Z,2.57
2018-12-07T11:17:35.807Z,4.30
2018-12-07T11:20:12.149Z,7.30
2018-12-07T11:22:46.877Z,3.13
2018-12-07T11:25:22.906Z,2.20
2018-12-07T11:31:07.751Z,1.97
2018-12-07T11:33:40.260Z,1.83
2018-12-07T11:36:09.828Z,1.50
2018-12-07T11:38:38.912Z,2.13
2018-12-07T11:41:08.693Z,2.20
2018-12-07T11:43:38.173Z,1.50
2018-12-07T11:46:07.525Z,2.00
2018-12-07T11:48:36.568Z,1.77
2018-12-07T11:51:06.619Z,2.07
2018-12-07T11:53:36.036Z,1.80
2018-12-07T11:56:05.719Z,1.50
2018-12-07T11:58:35.007Z,1.73
2018-12-07T12:01:04.863Z,3.57
2018-12-07T12:03:33.948Z,3.23
2018-12-07T12:06:03.277Z,1.87
2018-12-07T12:08:32.807Z,1.87
2018-12-07T12:11:02.184Z,4.07
2018-12-07T12:13:31.214Z,1.70
2018-12-07T12:16:01.075Z,2.93
2018-12-07T12:18:30.196Z,3.23
2018-12-07T12:20:59.343Z,4.40
2018-12-07T12:23:28.716Z,2.10
2018-12-07T12:25:57.750Z,2.50
2018-12-07T12:28:27.620Z,1.90
2018-12-07T12:30:56.696Z,1.60
2018-12-07T12:33:26.900Z,1.53
2018-12-07T12:35:55.975Z,2.00
2018-12-07T12:38:25.009Z,4.00
2018-12-07T12:40:54.493Z,1.57
2018-12-07T12:43:24.311Z,1.53
2018-12-07T12:45:53.440Z,2.40
2018-12-07T12:48:23.233Z,1.80
2018-12-07T12:50:52.400Z,2.33
2018-12-07T12:53:22.179Z,1.63
2018-12-07T12:55:51.758Z,1.47
2018-12-07T12:58:21.181Z,1.70
2018-12-07T13:00:50.673Z,1.63
2018-12-07T13:03:20.221Z,1.40
2018-12-07T13:05:49.987Z,1.63
2018-12-07T13:08:19.048Z,2.50
2018-12-07T13:10:48.271Z,1.40
2018-12-07T13:13:18.232Z,1.03
2018-12-07T13:15:48.123Z,1.90
2018-12-07T13:18:17.388Z,1.27
2018-12-07T13:20:46.803Z,2.00
2018-12-07T13:23:15.960Z,1.60
2018-12-07T13:25:44.990Z,1.80
2018-12-07T13:28:14.517Z,1.90
2018-12-07T13:30:44.758Z,1.63
2018-12-07T13:33:14.562Z,5.23
2018-12-07T13:35:44.084Z,9.00
2018-12-07T13:38:13.140Z,2.37
2018-12-07T13:40:43.865Z,2.83
2018-12-07T13:43:13.375Z,2.80
2018-12-07T13:45:43.331Z,2.70
2018-12-07T13:48:12.995Z,3.33
2018-12-07T13:50:42.577Z,2.73
2018-12-07T13:53:12.469Z,2.10
2018-12-07T13:55:42.379Z,2.40
2018-12-07T13:58:11.995Z,2.47
2018-12-07T14:00:41.272Z,2.13
2018-12-07T14:03:10.483Z,2.30
2018-12-07T14:05:40.473Z,3.50
2018-12-07T14:08:10.316Z,2.60
2018-12-07T14:10:39.870Z,2.53
2018-12-07T14:13:09.714Z,3.17
2018-12-07T14:15:40.249Z,2.83
2018-12-07T14:18:09.589Z,3.43
2018-12-07T14:20:39.991Z,3.40
2018-12-07T14:23:09.252Z,2.93
2018-12-07T14:25:39.736Z,2.70
2018-12-07T14:28:09.101Z,2.77
2018-12-07T14:30:38.229Z,3.57
2018-12-07T14:33:07.609Z,3.20
2018-12-07T14:35:36.981Z,2.83
2018-12-07T14:38:07.773Z,3.63
2018-12-07T14:40:37.625Z,2.57
2018-12-07T14:43:07.255Z,3.30
2018-12-07T14:45:36.931Z,3.90
2018-12-07T14:48:06.703Z,4.00
2018-12-07T14:50:36.676Z,3.73
2018-12-07T14:53:06.389Z,5.10
2018-12-07T14:55:35.586Z,7.63
2018-12-07T14:58:05.259Z,5.40
2018-12-07T15:00:35.760Z,5.10
2018-12-07T15:03:05.385Z,5.07
2018-12-07T15:05:34.730Z,4.40
2018-12-07T15:08:04.866Z,4.63
2018-12-07T15:10:34.733Z,5.50
2018-12-07T15:13:04.131Z,6.53
2018-12-07T15:15:33.508Z,4.83
2018-12-07T15:18:02.661Z,5.10
2018-12-07T15:20:32.152Z,4.70
2018-12-07T15:23:01.320Z,6.30
2018-12-07T15:25:30.510Z,4.97
2018-12-07T15:28:00.545Z,4.47
2018-12-07T15:30:30.398Z,4.63
2018-12-07T15:33:00.968Z,4.07
2018-12-07T15:35:31.232Z,4.43
2018-12-07T15:38:00.414Z,4.77
2018-12-07T15:40:29.571Z,4.57
2018-12-07T15:42:58.782Z,5.00
2018-12-07T15:45:27.941Z,4.12
2018-12-07T15:47:57.807Z,4.83
2018-12-07T15:50:26.871Z,4.27
2018-12-07T15:52:56.341Z,6.10
2018-12-07T15:55:26.281Z,4.83
2018-12-07T15:57:55.441Z,5.10
2018-12-07T16:00:24.703Z,4.50
2018-12-07T16:02:53.837Z,4.30
2018-12-07T16:05:24.454Z,4.30
2018-12-07T16:07:55.153Z,8.60
2018-12-07T16:10:24.756Z,5.17
2018-12-07T16:12:54.554Z,5.20
2018-12-07T16:15:24.948Z,4.30
2018-12-07T16:17:54.206Z,5.43
2018-12-07T16:20:23.840Z,4.67
2018-12-07T16:22:52.895Z,3.97
2018-12-07T16:25:22.343Z,4.03
2018-12-07T16:27:52.629Z,4.53
2018-12-07T16:30:22.280Z,4.03
2018-12-07T16:32:51.907Z,3.97
2018-12-07T16:35:21.299Z,5.37
2018-12-07T16:37:50.450Z,3.87
2018-12-07T16:40:19.902Z,4.47
2018-12-07T16:42:50.150Z,5.30
2018-12-07T16:45:19.919Z,4.40
2018-12-07T16:47:49.563Z,4.20
2018-12-07T16:50:18.773Z,4.33
2018-12-07T16:52:48.182Z,5.40
2018-12-07T16:55:17.797Z,5.77
2018-12-07T16:57:47.313Z,5.40
2018-12-07T17:00:16.660Z,5.50
2018-12-07T17:02:46.386Z,5.67
2018-12-07T17:05:15.933Z,5.90
2018-12-07T17:07:45.531Z,6.80
2018-12-07T17:10:14.662Z,7.50
2018-12-07T17:12:44.020Z,6.67
2018-12-07T17:15:14.137Z,5.83
2018-12-07T17:17:43.376Z,9.67
2018-12-07T17:20:12.855Z,5.37
2018-12-07T17:22:42.061Z,6.53
2018-12-07T17:25:11.413Z,5.90
2018-12-07T17:27:40.504Z,4.30
2018-12-07T17:30:09.698Z,6.00
2018-12-07T17:32:38.967Z,6.13
2018-12-07T17:35:08.264Z,5.20
2018-12-07T17:37:37.968Z,8.10
2018-12-07T17:40:07.385Z,8.07
2018-12-07T17:42:36.921Z,8.50
2018-12-07T17:45:06.227Z,8.73
2018-12-07T17:47:35.348Z,4.27
2018-12-07T17:50:06.633Z,10.30
2018-12-07T17:52:35.814Z,5.57
2018-12-07T17:55:04.985Z,7.33
2018-12-07T17:57:34.495Z,6.30
2018-12-07T18:00:04.785Z,6.77
2018-12-07T18:02:33.822Z,5.53
2018-12-07T18:05:02.955Z,8.73
2018-12-07T18:07:31.995Z,8.03
2018-12-07T18:10:01.682Z,5.93
2018-12-07T18:12:30.823Z,5.60
2018-12-07T18:15:00.024Z,4.67
2018-12-07T18:17:29.118Z,5.27
2018-12-07T18:19:58.847Z,6.13
2018-12-07T18:22:28.094Z,5.20
2018-12-07T18:24:57.551Z,4.33
2018-12-07T18:27:26.777Z,4.30
2018-12-07T18:29:55.994Z,5.37
2018-12-07T18:32:25.737Z,23.53
2018-12-07T18:34:55.152Z,7.33
2018-12-07T18:37:24.277Z,6.60
2018-12-07T18:39:53.794Z,5.23
2018-12-07T18:42:23.029Z,5.30
2018-12-07T18:44:52.932Z,5.13
2018-12-07T18:47:23.350Z,5.53
2018-12-07T18:49:54.377Z,6.23
2018-12-07T18:52:23.806Z,4.73
2018-12-07T18:54:53.758Z,4.77
2018-12-07T18:57:23.404Z,4.80
2018-12-07T18:59:53.262Z,7.30
2018-12-07T19:02:22.560Z,9.13
2018-12-07T19:04:52.411Z,4.53
2018-12-07T19:07:21.655Z,5.70
2018-12-07T19:09:52.576Z,6.20
2018-12-07T19:12:21.871Z,5.60
2018-12-07T19:14:51.504Z,3.83
2018-12-07T19:17:21.549Z,4.30
2018-12-07T19:19:50.989Z,6.60
2018-12-07T19:22:20.080Z,3.87
2018-12-07T19:24:49.314Z,7.23
2018-12-07T19:27:20.485Z,5.07
2018-12-07T19:29:50.565Z,4.20
2018-12-07T19:32:20.988Z,4.97
2018-12-07T19:34:50.930Z,5.57
2018-12-07T19:37:20.116Z,6.77
2018-12-07T19:39:50.111Z,4.30
2018-12-07T19:42:19.637Z,4.83
2018-12-07T19:44:48.861Z,3.87
2018-12-07T19:47:18.909Z,4.47
2018-12-07T19:49:48.919Z,3.97
2018-12-07T19:52:18.465Z,4.87
2018-12-07T19:54:47.981Z,8.90
2018-12-07T19:57:17.639Z,4.03
2018-12-07T19:59:47.535Z,3.80
2018-12-07T20:02:16.683Z,3.37
2018-12-07T20:04:46.044Z,3.67
2018-12-07T20:07:15.404Z,6.20
2018-12-07T20:09:45.244Z,4.90
2018-12-07T20:12:14.352Z,3.50
2018-12-07T20:14:43.901Z,6.80
2018-12-07T20:17:13.685Z,5.53
2018-12-07T20:19:45.174Z,3.80
2018-12-07T20:22:16.053Z,5.63
2018-12-07T20:24:46.086Z,3.90
2018-12-07T20:27:15.817Z,4.30
2018-12-07T20:29:45.692Z,4.70
2018-12-07T20:32:16.361Z,2.90
2018-12-07T20:34:46.321Z,2.60
2018-12-07T20:37:15.946Z,1.93
2018-12-07T20:39:45.048Z,2.00
2018-12-07T20:42:14.745Z,2.13
2018-12-07T20:44:45.014Z,2.10
2018-12-07T20:47:24.391Z,1.80
2018-12-07T20:49:45.264Z,2.20
2018-12-07T20:52:14.542Z,1.80
2018-12-07T20:54:44.135Z,1.60
2018-12-07T20:57:13.974Z,3.03
2018-12-07T20:59:43.258Z,2.03
2018-12-07T21:02:12.643Z,3.20
2018-12-07T21:04:42.503Z,5.70
2018-12-07T21:07:34.198Z,1.90
2018-12-07T21:17:06.668Z,2.75
2018-12-07T21:19:38.205Z,1.77
2018-12-07T21:22:07.701Z,1.40
2018-12-07T21:24:36.988Z,2.30
2018-12-07T21:27:06.314Z,2.13
2018-12-07T21:29:36.336Z,2.65
2018-12-07T21:32:10.170Z,1.70
2018-12-07T21:34:54.288Z,4.60
2018-12-07T21:37:24.536Z,2.10
2018-12-07T21:39:59.363Z,1.82
2018-12-07T21:42:29.969Z,1.60
2018-12-07T21:44:59.865Z,1.50
2018-12-07T21:47:48.393Z,1.30
2018-12-07T21:50:18.221Z,2.83
2018-12-07T21:52:47.779Z,2.00
2018-12-07T21:55:17.107Z,2.03
2018-12-07T21:57:47.255Z,1.70
2018-12-07T22:00:16.483Z,1.30
2018-12-07T22:02:45.841Z,1.20
2018-12-07T22:05:15.153Z,1.60
2018-12-07T22:07:44.796Z,1.40
2018-12-07T22:10:14.494Z,1.40
2018-12-07T22:12:44.313Z,1.20
2018-12-07T22:15:14.043Z,2.35
2018-12-07T22:17:43.686Z,1.57
2018-12-07T22:20:13.092Z,1.12
2018-12-07T22:22:43.828Z,1.03
2018-12-07T22:25:14.434Z,2.03
2018-12-07T22:27:44.128Z,1.25
2018-12-07T22:30:14.190Z,1.17
2018-12-07T22:32:43.423Z,3.45
2018-12-07T22:35:13.415Z,0.90
2018-12-07T22:37:43.082Z,1.30
2018-12-07T22:40:14.320Z,0.88
2018-12-07T22:42:44.100Z,1.33
2018-12-07T22:45:13.985Z,0.70
2018-12-07T22:47:43.724Z,0.67
2018-12-07T22:50:12.783Z,0.67
2018-12-07T22:52:42.641Z,0.70
2018-12-07T22:55:12.547Z,1.10
2018-12-07T22:57:42.008Z,0.70
2018-12-07T23:02:55.207Z,0.90
2018-12-07T23:05:25.019Z,0.70
2018-12-07T23:07:54.809Z,0.82
2018-12-07T23:10:24.603Z,0.70
2018-12-07T23:12:54.310Z,1.57
2018-12-07T23:15:23.751Z,1.67
2018-12-07T23:17:53.476Z,0.70
2018-12-07T23:20:22.544Z,0.93
2018-12-07T23:22:51.778Z,0.70
2018-12-07T23:25:21.836Z,0.80
2018-12-07T23:27:51.219Z,0.50
2018-12-07T23:30:20.924Z,2.63
2018-12-07T23:32:49.955Z,0.60
2018-12-07T23:35:19.636Z,0.60
2018-12-07T23:37:49.767Z,1.57
2018-12-07T23:40:19.586Z,3.60
2018-12-07T23:42:51.812Z,0.78
2018-12-07T23:45:20.855Z,0.60
2018-12-07T23:47:50.469Z,4.67
2018-12-07T23:50:19.533Z,0.60
2018-12-07T23:52:48.596Z,0.70
2018-12-07T23:55:18.054Z,0.80
2018-12-07T23:57:47.242Z,1.30
